sensor_id;sensor_type;location;lat;lon;timestamp;pressure;altitude;pressure_sealevel;temperature;humidity
55044;BME280;54902;50.420;18.854;2024-03-02T00:00:07;100684.59;;;9.13;81.05
55044;BME280;54902;50.420;18.854;2024-03-02T00:00:44;100687.32;;;9.13;81.04
55044;BME280;54902;50.420;18.854;2024-03-02T00:01:19;100683.61;;;9.14;81.04
55044;BME280;54902;50.420;18.854;2024-03-02T00:01:50;100679.01;;;9.15;81.03
55044;BME280;54902;50.420;18.854;2024-03-02T00:02:21;100684.47;;;9.15;81.03
55044;BME280;54902;50.420;18.854;2024-03-02T00:02:52;100680.76;;;9.16;81.04
55044;BME280;54902;50.420;18.854;2024-03-02T00:03:23;100684.37;;;9.16;81.06
55044;BME280;54902;50.420;18.854;2024-03-02T00:03:55;100679.91;;;9.15;81.04
55044;BME280;54902;50.420;18.854;2024-03-02T00:04:26;100688.08;;;9.15;81.05
55044;BME280;54902;50.420;18.854;2024-03-02T00:04:57;100678.92;;;9.16;81.06
55044;BME280;54902;50.420;18.854;2024-03-02T00:05:28;100685.23;;;9.17;81.07
55044;BME280;54902;50.420;18.854;2024-03-02T00:05:59;100681.66;;;9.16;81.05
55044;BME280;54902;50.420;18.854;2024-03-02T00:06:30;100686.08;;;9.17;81.05
55044;BME280;54902;50.420;18.854;2024-03-02T00:07:02;100683.35;;;9.17;81.07
55044;BME280;54902;50.420;18.854;2024-03-02T00:07:33;100683.35;;;9.17;81.07
55044;BME280;54902;50.420;18.854;2024-03-02T00:08:05;100686.08;;;9.17;81.09
55044;BME280;54902;50.420;18.854;2024-03-02T00:08:38;100690.55;;;9.18;81.12
55044;BME280;54902;50.420;18.854;2024-03-02T00:09:10;100683.35;;;9.17;81.10
55044;BME280;54902;50.420;18.854;2024-03-02T00:09:43;100676.08;;;9.18;81.09
55044;BME280;54902;50.420;18.854;2024-03-02T00:10:19;100678.80;;;9.18;81.10
55044;BME280;54902;50.420;18.854;2024-03-02T00:10:51;100670.49;;;9.19;81.08
55044;BME280;54902;50.420;18.854;2024-03-02T00:11:23;100680.51;;;9.19;81.09
55044;BME280;54902;50.420;18.854;2024-03-02T00:11:54;100679.66;;;9.18;81.08
55044;BME280;54902;50.420;18.854;2024-03-02T00:12:25;100683.23;;;9.19;81.07
55044;BME280;54902;50.420;18.854;2024-03-02T00:12:56;100682.38;;;9.18;81.08
55044;BME280;54902;50.420;18.854;2024-03-02T00:13:29;100679.66;;;9.18;81.08
55044;BME280;54902;50.420;18.854;2024-03-02T00:14:02;100672.34;;;9.19;81.08
55044;BME280;54902;50.420;18.854;2024-03-02T00:14:33;100677.77;;;9.19;81.08
55044;BME280;54902;50.420;18.854;2024-03-02T00:15:18;100679.66;;;9.18;81.08
55044;BME280;54902;50.420;18.854;2024-03-02T00:16:24;100676.93;;;9.18;81.11
55044;BME280;54902;50.420;18.854;2024-03-02T00:16:59;100677.91;;;9.17;81.09
55044;BME280;54902;50.420;18.854;2024-03-02T00:17:30;100670.63;;;9.18;81.08
55044;BME280;54902;50.420;18.854;2024-03-02T00:18:01;100671.48;;;9.18;81.09
55044;BME280;54902;50.420;18.854;2024-03-02T00:18:34;100677.91;;;9.17;81.08
55044;BME280;54902;50.420;18.854;2024-03-02T00:19:07;100683.35;;;9.17;81.07
55044;BME280;54902;50.420;18.854;2024-03-02T00:19:39;100677.91;;;9.17;81.06
55044;BME280;54902;50.420;18.854;2024-03-02T00:20:11;100666.16;;;9.17;81.06
55044;BME280;54902;50.420;18.854;2024-03-02T00:20:47;100678.92;;;9.16;81.05
55044;BME280;54902;50.420;18.854;2024-03-02T00:21:18;100676.20;;;9.16;81.05
55044;BME280;54902;50.420;18.854;2024-03-02T00:21:53;100672.59;;;9.16;81.05
55044;BME280;54902;50.420;18.854;2024-03-02T00:22:25;100673.48;;;9.16;81.05
55044;BME280;54902;50.420;18.854;2024-03-02T00:23:04;100671.73;;;9.15;81.04
55044;BME280;54902;50.420;18.854;2024-03-02T00:23:35;100663.55;;;9.15;81.03
55044;BME280;54902;50.420;18.854;2024-03-02T00:24:23;100666.28;;;9.15;81.00
55044;BME280;54902;50.420;18.854;2024-03-02T00:24:50;100658.11;;;9.15;81.02
55044;BME280;54902;50.420;18.854;2024-03-02T00:25:21;100660.83;;;9.15;81.02
55044;BME280;54902;50.420;18.854;2024-03-02T00:25:54;100659.09;;;9.14;80.98
55044;BME280;54902;50.420;18.854;2024-03-02T00:26:26;100666.41;;;9.14;80.93
55044;BME280;54902;50.420;18.854;2024-03-02T00:26:57;100670.97;;;9.13;80.96
55044;BME280;54902;50.420;18.854;2024-03-02T00:27:28;100654.62;;;9.13;80.97
55044;BME280;54902;50.420;18.854;2024-03-02T00:27:59;100658.32;;;9.12;80.97
55044;BME280;54902;50.420;18.854;2024-03-02T00:28:33;100669.22;;;9.12;80.95
55044;BME280;54902;50.420;18.854;2024-03-02T00:29:04;100667.51;;;9.11;80.95
55044;BME280;54902;50.420;18.854;2024-03-02T00:29:35;100664.79;;;9.11;80.96
55044;BME280;54902;50.420;18.854;2024-03-02T00:30:38;100655.73;;;9.11;80.96
55044;BME280;54902;50.420;18.854;2024-03-02T00:31:33;100673.19;;;9.08;80.94
55044;BME280;54902;50.420;18.854;2024-03-02T00:32:12;100671.48;;;9.07;80.96
55044;BME280;54902;50.420;18.854;2024-03-02T00:32:44;100675.18;;;9.06;80.93
55044;BME280;54902;50.420;18.854;2024-03-02T00:33:15;100667.99;;;9.05;80.94
55044;BME280;54902;50.420;18.854;2024-03-02T00:33:47;100673.44;;;9.05;80.92
55044;BME280;54902;50.420;18.854;2024-03-02T00:34:18;100668.12;;;9.04;80.91
55044;BME280;54902;50.420;18.854;2024-03-02T00:34:50;100667.26;;;9.03;80.91
55044;BME280;54902;50.420;18.854;2024-03-02T00:35:23;100669.22;;;9.01;80.89
55044;BME280;54902;50.420;18.854;2024-03-02T00:35:54;100669.35;;;9.00;80.88
55044;BME280;54902;50.420;18.854;2024-03-02T00:36:26;100668.49;;;8.99;80.87
55044;BME280;54902;50.420;18.854;2024-03-02T00:37:00;100675.77;;;8.99;80.88
55044;BME280;54902;50.420;18.854;2024-03-02T00:37:31;100668.71;;;8.96;80.88
55044;BME280;54902;50.420;18.854;2024-03-02T00:38:06;100675.17;;;8.95;80.87
55044;BME280;54902;50.420;18.854;2024-03-02T00:38:46;100676.16;;;8.94;80.87
55044;BME280;54902;50.420;18.854;2024-03-02T00:39:18;100667.22;;;8.92;80.84
55044;BME280;54902;50.420;18.854;2024-03-02T00:39:49;100676.41;;;8.91;80.83
55044;BME280;54902;50.420;18.854;2024-03-02T00:40:20;100680.11;;;8.90;80.80
55044;BME280;54902;50.420;18.854;2024-03-02T00:40:52;100676.63;;;8.88;80.81
55044;BME280;54902;50.420;18.854;2024-03-02T00:41:29;100674.03;;;8.87;80.81
55044;BME280;54902;50.420;18.854;2024-03-02T00:42:01;100657.54;;;8.77;80.78
55044;BME280;54902;50.420;18.854;2024-03-02T00:42:32;100678.84;;;8.83;80.79
55044;BME280;54902;50.420;18.854;2024-03-02T00:43:03;100685.30;;;8.82;80.77
55044;BME280;54902;50.420;18.854;2024-03-02T00:44:22;100679.34;;;8.77;80.76
55044;BME280;54902;50.420;18.854;2024-03-02T00:44:56;100682.17;;;8.76;80.76
55044;BME280;54902;50.420;18.854;2024-03-02T00:45:27;100690.47;;;8.74;80.75
55044;BME280;54902;50.420;18.854;2024-03-02T00:45:58;100682.40;;;8.73;80.76
55044;BME280;54902;50.420;18.854;2024-03-02T00:46:33;100676.22;;;8.71;80.76
55044;BME280;54902;50.420;18.854;2024-03-02T00:47:04;100679.06;;;8.69;80.77
55044;BME280;54902;50.420;18.854;2024-03-02T00:47:38;100682.77;;;8.68;80.77
55044;BME280;54902;50.420;18.854;2024-03-02T00:48:10;100679.32;;;8.67;80.79
55044;BME280;54902;50.420;18.854;2024-03-02T00:49:25;100671.36;;;8.64;80.82
55044;BME280;54902;50.420;18.854;2024-03-02T00:49:58;100671.61;;;8.61;80.83
55044;BME280;54902;50.420;18.854;2024-03-02T00:50:29;100671.61;;;8.61;80.84
55044;BME280;54902;50.420;18.854;2024-03-02T00:51:00;100669.87;;;8.60;80.86
55044;BME280;54902;50.420;18.854;2024-03-02T00:51:32;100678.16;;;8.58;80.88
55044;BME280;54902;50.420;18.854;2024-03-02T00:52:07;100672.84;;;8.57;80.88
55044;BME280;54902;50.420;18.854;2024-03-02T00:52:38;100680.99;;;8.57;80.89
55044;BME280;54902;50.420;18.854;2024-03-02T00:53:12;100679.26;;;8.56;80.91
55044;BME280;54902;50.420;18.854;2024-03-02T00:53:43;100675.80;;;8.54;80.93
55044;BME280;54902;50.420;18.854;2024-03-02T00:54:15;100675.80;;;8.54;80.93
55044;BME280;54902;50.420;18.854;2024-03-02T00:54:49;100678.64;;;8.52;80.92
55044;BME280;54902;50.420;18.854;2024-03-02T00:55:20;100677.75;;;8.52;80.94
55044;BME280;54902;50.420;18.854;2024-03-02T00:55:52;100676.02;;;8.51;80.94
55044;BME280;54902;50.420;18.854;2024-03-02T00:56:24;100683.21;;;8.52;80.97
55044;BME280;54902;50.420;18.854;2024-03-02T00:56:57;100667.84;;;8.51;80.94
55044;BME280;54902;50.420;18.854;2024-03-02T00:57:31;100666.14;;;8.50;80.96
55044;BME280;54902;50.420;18.854;2024-03-02T00:58:05;100667.12;;;8.49;80.93
55044;BME280;54902;50.420;18.854;2024-03-02T00:58:36;100670.82;;;8.48;80.93
55044;BME280;54902;50.420;18.854;2024-03-02T00:59:07;100673.54;;;8.48;80.94
55044;BME280;54902;50.420;18.854;2024-03-02T00:59:40;100669.07;;;8.47;80.97
55044;BME280;54902;50.420;18.854;2024-03-02T01:00:11;100673.66;;;8.46;80.96
55044;BME280;54902;50.420;18.854;2024-03-02T01:00:47;100662.77;;;8.46;80.98
55044;BME280;54902;50.420;18.854;2024-03-02T01:01:19;100666.47;;;8.45;80.98
55044;BME280;54902;50.420;18.854;2024-03-02T01:01:53;100671.05;;;8.45;80.97
55044;BME280;54902;50.420;18.854;2024-03-02T01:02:24;100666.59;;;8.44;80.97
55044;BME280;54902;50.420;18.854;2024-03-02T01:02:55;100668.34;;;8.45;80.98
55044;BME280;54902;50.420;18.854;2024-03-02T01:03:26;100664.73;;;8.44;80.96
55044;BME280;54902;50.420;18.854;2024-03-02T01:03:57;100675.62;;;8.44;80.97
55044;BME280;54902;50.420;18.854;2024-03-02T01:04:28;100669.32;;;8.44;80.97
55044;BME280;54902;50.420;18.854;2024-03-02T01:04:59;100669.32;;;8.44;80.97
55044;BME280;54902;50.420;18.854;2024-03-02T01:05:30;100668.46;;;8.43;80.95
55044;BME280;54902;50.420;18.854;2024-03-02T01:06:01;100669.44;;;8.42;80.95
55044;BME280;54902;50.420;18.854;2024-03-02T01:06:32;100667.57;;;8.43;80.95
55044;BME280;54902;50.420;18.854;2024-03-02T01:07:04;100664.98;;;8.41;80.94
55044;BME280;54902;50.420;18.854;2024-03-02T01:07:38;100665.86;;;8.42;80.95
55044;BME280;54902;50.420;18.854;2024-03-02T01:08:10;100667.70;;;8.41;80.95
55044;BME280;54902;50.420;18.854;2024-03-02T01:08:41;100669.55;;;8.41;80.95
55044;BME280;54902;50.420;18.854;2024-03-02T01:09:12;100663.23;;;8.40;80.94
55044;BME280;54902;50.420;18.854;2024-03-02T01:09:43;100664.23;;;8.39;80.93
55044;BME280;54902;50.420;18.854;2024-03-02T01:10:15;100662.49;;;8.38;80.92
55044;BME280;54902;50.420;18.854;2024-03-02T01:10:46;100654.45;;;8.37;80.92
55044;BME280;54902;50.420;18.854;2024-03-02T01:11:18;100660.88;;;8.36;80.91
55044;BME280;54902;50.420;18.854;2024-03-02T01:11:49;100663.60;;;8.36;80.91
55044;BME280;54902;50.420;18.854;2024-03-02T01:12:20;100665.46;;;8.35;80.91
55044;BME280;54902;50.420;18.854;2024-03-02T01:12:51;100656.53;;;8.33;80.92
55044;BME280;54902;50.420;18.854;2024-03-02T01:13:23;100667.30;;;8.35;80.93
55044;BME280;54902;50.420;18.854;2024-03-02T01:13:54;100666.56;;;8.33;80.91
55044;BME280;54902;50.420;18.854;2024-03-02T01:14:25;100663.84;;;8.33;80.93
55044;BME280;54902;50.420;18.854;2024-03-02T01:14:56;100663.84;;;8.33;80.96
55044;BME280;54902;50.420;18.854;2024-03-02T01:15:27;100656.78;;;8.30;80.92
55044;BME280;54902;50.420;18.854;2024-03-02T01:15:59;100660.34;;;8.31;80.94
55044;BME280;54902;50.420;18.854;2024-03-02T01:16:30;100661.33;;;8.30;80.92
55044;BME280;54902;50.420;18.854;2024-03-02T01:17:01;100651.91;;;8.23;80.94
55044;BME280;54902;50.420;18.854;2024-03-02T01:17:35;100654.17;;;8.29;80.93
55044;BME280;54902;50.420;18.854;2024-03-02T01:18:06;100662.34;;;8.29;80.95
55044;BME280;54902;50.420;18.854;2024-03-02T01:18:37;100659.62;;;8.29;80.94
55044;BME280;54902;50.420;18.854;2024-03-02T01:19:08;100663.31;;;8.28;80.96
55044;BME280;54902;50.420;18.854;2024-03-02T01:19:41;100657.88;;;8.28;80.98
55044;BME280;54902;50.420;18.854;2024-03-02T01:20:13;100663.31;;;8.28;80.97
55044;BME280;54902;50.420;18.854;2024-03-02T01:20:44;100668.77;;;8.28;80.97
55044;BME280;54902;50.420;18.854;2024-03-02T01:21:15;100664.16;;;8.28;80.98
55044;BME280;54902;50.420;18.854;2024-03-02T01:21:46;100660.72;;;8.26;81.00
55044;BME280;54902;50.420;18.854;2024-03-02T01:22:17;100656.13;;;8.27;81.01
55044;BME280;54902;50.420;18.854;2024-03-02T01:22:55;100662.46;;;8.27;81.02
55044;BME280;54902;50.420;18.854;2024-03-02T01:23:26;100655.28;;;8.26;81.02
55044;BME280;54902;50.420;18.854;2024-03-02T01:23:57;100653.41;;;8.27;81.05
55044;BME280;54902;50.420;18.854;2024-03-02T01:24:28;100660.72;;;8.26;81.04
55044;BME280;54902;50.420;18.854;2024-03-02T01:24:59;100665.27;;;8.26;81.05
55044;BME280;54902;50.420;18.854;2024-03-02T01:25:30;100656.13;;;8.27;81.04
55044;BME280;54902;50.420;18.854;2024-03-02T01:26:01;100657.10;;;8.26;81.07
55044;BME280;54902;50.420;18.854;2024-03-02T01:26:32;100654.38;;;8.26;81.05
55044;BME280;54902;50.420;18.854;2024-03-02T01:27:03;100654.38;;;8.26;81.07
55044;BME280;54902;50.420;18.854;2024-03-02T01:27:34;100657.10;;;8.26;81.07
55044;BME280;54902;50.420;18.854;2024-03-02T01:28:05;100651.57;;;8.27;81.08
55044;BME280;54902;50.420;18.854;2024-03-02T01:28:36;100657.10;;;8.26;81.08
55044;BME280;54902;50.420;18.854;2024-03-02T01:29:07;100654.38;;;8.26;81.09
55044;BME280;54902;50.420;18.854;2024-03-02T01:29:38;100654.38;;;8.26;81.11
55044;BME280;54902;50.420;18.854;2024-03-02T01:30:10;100648.94;;;8.26;81.13
55044;BME280;54902;50.420;18.854;2024-03-02T01:30:42;100640.78;;;8.26;81.13
55044;BME280;54902;50.420;18.854;2024-03-02T01:31:13;100630.26;;;8.21;81.05
55044;BME280;54902;50.420;18.854;2024-03-02T01:31:44;100645.24;;;8.27;81.13
55044;BME280;54902;50.420;18.854;2024-03-02T01:32:15;100641.66;;;8.26;81.13
55044;BME280;54902;50.420;18.854;2024-03-02T01:32:46;100639.80;;;8.27;81.14
55044;BME280;54902;50.420;18.854;2024-03-02T01:33:18;100640.78;;;8.26;81.14
55044;BME280;54902;50.420;18.854;2024-03-02T01:33:50;100648.94;;;8.26;81.16
55044;BME280;54902;50.420;18.854;2024-03-02T01:34:21;100640.78;;;8.26;81.15
55044;BME280;54902;50.420;18.854;2024-03-02T01:34:52;100648.94;;;8.26;81.16
55044;BME280;54902;50.420;18.854;2024-03-02T01:35:23;100643.50;;;8.26;81.14
55044;BME280;54902;50.420;18.854;2024-03-02T01:35:54;100641.66;;;8.26;81.14
55044;BME280;54902;50.420;18.854;2024-03-02T01:36:25;100639.80;;;8.27;81.15
55044;BME280;54902;50.420;18.854;2024-03-02T01:36:56;100638.95;;;8.26;81.16
55044;BME280;54902;50.420;18.854;2024-03-02T01:37:27;100640.78;;;8.26;81.16
55044;BME280;54902;50.420;18.854;2024-03-02T01:37:58;100651.66;;;8.26;81.16
55044;BME280;54902;50.420;18.854;2024-03-02T01:38:29;100646.22;;;8.26;81.15
55044;BME280;54902;50.420;18.854;2024-03-02T01:39:00;100638.95;;;8.26;81.16
55044;BME280;54902;50.420;18.854;2024-03-02T01:39:31;100643.50;;;8.26;81.13
55044;BME280;54902;50.420;18.854;2024-03-02T01:40:02;100644.39;;;8.26;81.14
55044;BME280;54902;50.420;18.854;2024-03-02T01:40:39;100645.24;;;8.27;81.17
55044;BME280;54902;50.420;18.854;2024-03-02T01:41:10;100635.34;;;8.26;81.16
55044;BME280;54902;50.420;18.854;2024-03-02T01:41:42;100638.95;;;8.26;81.15
55044;BME280;54902;50.420;18.854;2024-03-02T01:42:13;100634.36;;;8.27;81.15
55044;BME280;54902;50.420;18.854;2024-03-02T01:42:44;100634.36;;;8.27;81.14
55044;BME280;54902;50.420;18.854;2024-03-02T01:43:15;100633.50;;;8.26;81.14
55044;BME280;54902;50.420;18.854;2024-03-02T01:43:46;100618.61;;;8.19;81.14
55044;BME280;54902;50.420;18.854;2024-03-02T01:44:17;100630.90;;;8.25;81.15
55044;BME280;54902;50.420;18.854;2024-03-02T01:44:48;100629.90;;;8.26;81.16
55044;BME280;54902;50.420;18.854;2024-03-02T01:45:20;100632.61;;;8.26;81.16
55044;BME280;54902;50.420;18.854;2024-03-02T01:45:51;100637.08;;;8.27;81.17
55044;BME280;54902;50.420;18.854;2024-03-02T01:46:22;100641.66;;;8.26;81.16
55044;BME280;54902;50.420;18.854;2024-03-02T01:46:53;100628.06;;;8.26;81.16
55044;BME280;54902;50.420;18.854;2024-03-02T01:47:24;100629.90;;;8.26;81.17
55044;BME280;54902;50.420;18.854;2024-03-02T01:47:55;100631.76;;;8.25;81.16
55044;BME280;54902;50.420;18.854;2024-03-02T01:48:26;100626.32;;;8.25;81.18
55044;BME280;54902;50.420;18.854;2024-03-02T01:48:57;100633.50;;;8.26;81.17
55044;BME280;54902;50.420;18.854;2024-03-02T01:49:28;100636.34;;;8.25;81.18
55044;BME280;54902;50.420;18.854;2024-03-02T01:49:59;100627.17;;;8.26;81.23
55044;BME280;54902;50.420;18.854;2024-03-02T01:50:34;100637.20;;;8.25;81.17
55044;BME280;54902;50.420;18.854;2024-03-02T01:51:06;100625.46;;;8.25;81.18
55044;BME280;54902;50.420;18.854;2024-03-02T01:51:37;100630.90;;;8.25;81.18
55044;BME280;54902;50.420;18.854;2024-03-02T01:52:08;100628.19;;;8.25;81.18
55044;BME280;54902;50.420;18.854;2024-03-02T01:52:39;100620.23;;;8.22;81.29
55044;BME280;54902;50.420;18.854;2024-03-02T01:53:10;100627.29;;;8.24;81.19
55044;BME280;54902;50.420;18.854;2024-03-02T01:53:41;100627.17;;;8.26;81.20
55044;BME280;54902;50.420;18.854;2024-03-02T01:54:12;100628.19;;;8.25;81.19
55044;BME280;54902;50.420;18.854;2024-03-02T01:54:43;100624.58;;;8.24;81.19
55044;BME280;54902;50.420;18.854;2024-03-02T01:55:15;100629.16;;;8.24;81.20
55044;BME280;54902;50.420;18.854;2024-03-02T01:55:46;100630.02;;;8.24;81.18
55044;BME280;54902;50.420;18.854;2024-03-02T01:56:17;100628.19;;;8.25;81.20
55044;BME280;54902;50.420;18.854;2024-03-02T01:56:48;100622.84;;;8.23;81.17
55044;BME280;54902;50.420;18.854;2024-03-02T01:57:19;100630.02;;;8.24;81.18
55044;BME280;54902;50.420;18.854;2024-03-02T01:57:50;100624.69;;;8.23;81.11
55044;BME280;54902;50.420;18.854;2024-03-02T01:58:22;100623.73;;;8.24;81.19
55044;BME280;54902;50.420;18.854;2024-03-02T01:58:53;100623.73;;;8.24;81.20
55044;BME280;54902;50.420;18.854;2024-03-02T01:59:25;100623.73;;;8.24;81.20
55044;BME280;54902;50.420;18.854;2024-03-02T01:59:56;100618.28;;;8.24;81.19
55044;BME280;54902;50.420;18.854;2024-03-02T02:00:27;100621.97;;;8.23;81.18
55044;BME280;54902;50.420;18.854;2024-03-02T02:00:59;100621.97;;;8.23;81.17
55044;BME280;54902;50.420;18.854;2024-03-02T02:01:30;100621.97;;;8.23;81.18
55044;BME280;54902;50.420;18.854;2024-03-02T02:02:01;100627.41;;;8.23;81.20
55044;BME280;54902;50.420;18.854;2024-03-02T02:02:33;100627.41;;;8.23;81.20
55044;BME280;54902;50.420;18.854;2024-03-02T02:03:04;100630.13;;;8.23;81.20
55044;BME280;54902;50.420;18.854;2024-03-02T02:03:34;100616.01;;;8.18;81.22
55044;BME280;54902;50.420;18.854;2024-03-02T02:04:05;100621.97;;;8.23;81.22
55044;BME280;54902;50.420;18.854;2024-03-02T02:04:37;100627.41;;;8.23;81.22
55044;BME280;54902;50.420;18.854;2024-03-02T02:05:08;100627.41;;;8.23;81.24
55044;BME280;54902;50.420;18.854;2024-03-02T02:05:42;100624.69;;;8.23;81.25
55044;BME280;54902;50.420;18.854;2024-03-02T02:06:13;100625.68;;;8.22;81.24
55044;BME280;54902;50.420;18.854;2024-03-02T02:06:44;100622.95;;;8.22;81.25
55044;BME280;54902;50.420;18.854;2024-03-02T02:07:15;100627.54;;;8.21;81.25
55044;BME280;54902;50.420;18.854;2024-03-02T02:07:46;100620.23;;;8.22;81.23
55044;BME280;54902;50.420;18.854;2024-03-02T02:08:17;100614.78;;;8.22;81.23
55044;BME280;54902;50.420;18.854;2024-03-02T02:08:48;100615.80;;;8.21;81.32
55044;BME280;54902;50.420;18.854;2024-03-02T02:09:19;100622.09;;;8.21;81.23
55044;BME280;54902;50.420;18.854;2024-03-02T02:09:50;100621.24;;;8.21;81.23
55044;BME280;54902;50.420;18.854;2024-03-02T02:10:21;100625.68;;;8.22;81.22
55044;BME280;54902;50.420;18.854;2024-03-02T02:10:52;100625.68;;;8.22;81.23
55044;BME280;54902;50.420;18.854;2024-03-02T02:11:24;100620.23;;;8.22;81.22
55044;BME280;54902;50.420;18.854;2024-03-02T02:11:55;100621.24;;;8.21;81.24
55044;BME280;54902;50.420;18.854;2024-03-02T02:12:27;100621.24;;;8.21;81.24
55044;BME280;54902;50.420;18.854;2024-03-02T02:12:58;100616.78;;;8.20;81.25
55044;BME280;54902;50.420;18.854;2024-03-02T02:13:29;100614.05;;;8.20;81.24
55044;BME280;54902;50.420;18.854;2024-03-02T02:14:00;100618.53;;;8.21;81.25
55044;BME280;54902;50.420;18.854;2024-03-02T02:14:31;100627.66;;;8.20;81.26
55044;BME280;54902;50.420;18.854;2024-03-02T02:15:02;100616.78;;;8.20;81.26
55044;BME280;54902;50.420;18.854;2024-03-02T02:15:34;100623.96;;;8.21;81.25
55044;BME280;54902;50.420;18.854;2024-03-02T02:16:07;100622.23;;;8.20;81.25
55044;BME280;54902;50.420;18.854;2024-03-02T02:16:38;100611.34;;;8.20;81.25
55044;BME280;54902;50.420;18.854;2024-03-02T02:17:09;100620.48;;;8.19;81.25
55044;BME280;54902;50.420;18.854;2024-03-02T02:17:40;100615.03;;;8.19;81.25
55044;BME280;54902;50.420;18.854;2024-03-02T02:18:11;100613.28;;;8.18;81.25
55044;BME280;54902;50.420;18.854;2024-03-02T02:18:42;100616.90;;;8.18;81.24
55044;BME280;54902;50.420;18.854;2024-03-02T02:19:13;100616.90;;;8.18;81.27
55044;BME280;54902;50.420;18.854;2024-03-02T02:19:44;100618.73;;;8.18;81.24
55044;BME280;54902;50.420;18.854;2024-03-02T02:20:16;100610.57;;;8.18;81.25
55044;BME280;54902;50.420;18.854;2024-03-02T02:20:47;100608.73;;;8.18;81.25
55044;BME280;54902;50.420;18.854;2024-03-02T02:21:22;100611.57;;;8.17;81.25
55044;BME280;54902;50.420;18.854;2024-03-02T02:21:53;100611.57;;;8.17;81.27
55044;BME280;54902;50.420;18.854;2024-03-02T02:22:24;100612.44;;;8.17;81.27
55044;BME280;54902;50.420;18.854;2024-03-02T02:23:02;100599.20;;;8.13;81.26
55044;BME280;54902;50.420;18.854;2024-03-02T02:23:33;100617.99;;;8.16;81.27
55044;BME280;54902;50.420;18.854;2024-03-02T02:24:05;100616.13;;;8.16;81.28
55044;BME280;54902;50.420;18.854;2024-03-02T02:24:36;100605.38;;;8.15;81.28
55044;BME280;54902;50.420;18.854;2024-03-02T02:25:10;100616.13;;;8.16;81.29
55044;BME280;54902;50.420;18.854;2024-03-02T02:25:41;100608.95;;;8.15;81.27
55044;BME280;54902;50.420;18.854;2024-03-02T02:26:12;100620.84;;;8.14;81.30
55044;BME280;54902;50.420;18.854;2024-03-02T02:26:43;100613.53;;;8.15;81.29
55044;BME280;54902;50.420;18.854;2024-03-02T02:27:14;100614.39;;;8.15;81.30
55044;BME280;54902;50.420;18.854;2024-03-02T02:27:46;100610.81;;;8.15;81.30
55044;BME280;54902;50.420;18.854;2024-03-02T02:28:17;100617.23;;;8.14;81.29
55044;BME280;54902;50.420;18.854;2024-03-02T02:28:48;100612.69;;;8.14;81.30
55044;BME280;54902;50.420;18.854;2024-03-02T02:29:19;100615.40;;;8.14;81.30
55044;BME280;54902;50.420;18.854;2024-03-02T02:29:50;100614.51;;;8.14;81.30
55044;BME280;54902;50.420;18.854;2024-03-02T02:30:23;100613.66;;;8.13;81.30
55044;BME280;54902;50.420;18.854;2024-03-02T02:30:55;100610.09;;;8.13;81.30
55044;BME280;54902;50.420;18.854;2024-03-02T02:31:26;100612.69;;;8.14;81.30
55044;BME280;54902;50.420;18.854;2024-03-02T02:31:57;100622.67;;;8.14;81.30
55044;BME280;54902;50.420;18.854;2024-03-02T02:32:28;100619.95;;;8.14;81.31
55044;BME280;54902;50.420;18.854;2024-03-02T02:32:59;100612.69;;;8.14;81.31
55044;BME280;54902;50.420;18.854;2024-03-02T02:33:30;100615.53;;;8.13;81.30
55044;BME280;54902;50.420;18.854;2024-03-02T02:34:01;100607.36;;;8.13;81.32
55044;BME280;54902;50.420;18.854;2024-03-02T02:34:32;100611.79;;;8.14;81.30
55044;BME280;54902;50.420;18.854;2024-03-02T02:35:04;100611.88;;;8.12;81.31
55044;BME280;54902;50.420;18.854;2024-03-02T02:35:35;100604.64;;;8.13;81.30
55044;BME280;54902;50.420;18.854;2024-03-02T02:36:06;100613.74;;;8.12;81.30
55044;BME280;54902;50.420;18.854;2024-03-02T02:36:39;100618.30;;;8.11;81.30
55044;BME280;54902;50.420;18.854;2024-03-02T02:37:11;100612.85;;;8.11;81.29
55044;BME280;54902;50.420;18.854;2024-03-02T02:37:42;100610.14;;;8.11;81.29
55044;BME280;54902;50.420;18.854;2024-03-02T02:38:14;100616.59;;;8.10;81.29
55044;BME280;54902;50.420;18.854;2024-03-02T02:38:47;100612.13;;;8.09;81.28
55044;BME280;54902;50.420;18.854;2024-03-02T02:39:21;100616.67;;;8.09;81.30
55044;BME280;54902;50.420;18.854;2024-03-02T02:39:55;100615.81;;;8.08;81.32
55044;BME280;54902;50.420;18.854;2024-03-02T02:40:26;100616.67;;;8.09;81.32
55044;BME280;54902;50.420;18.854;2024-03-02T02:40:59;100608.63;;;8.08;81.30
55044;BME280;54902;50.420;18.854;2024-03-02T02:41:30;100614.96;;;8.08;81.32
55044;BME280;54902;50.420;18.854;2024-03-02T02:42:01;100617.69;;;8.08;81.31
55044;BME280;54902;50.420;18.854;2024-03-02T02:42:33;100614.08;;;8.08;81.29
55044;BME280;54902;50.420;18.854;2024-03-02T02:43:04;100615.95;;;8.07;81.31
55044;BME280;54902;50.420;18.854;2024-03-02T02:43:35;100612.37;;;8.07;81.32
55044;BME280;54902;50.420;18.854;2024-03-02T02:44:06;100617.90;;;8.05;81.31
55044;BME280;54902;50.420;18.854;2024-03-02T02:44:37;100612.45;;;8.05;81.27
55044;BME280;54902;50.420;18.854;2024-03-02T02:45:08;100608.02;;;8.04;81.25
55044;BME280;54902;50.420;18.854;2024-03-02T02:45:39;100621.63;;;8.04;81.26
55044;BME280;54902;50.420;18.854;2024-03-02T02:46:10;100608.02;;;8.04;81.25
55044;BME280;54902;50.420;18.854;2024-03-02T02:46:41;100609.86;;;8.04;81.25
55044;BME280;54902;50.420;18.854;2024-03-02T02:47:12;100609.86;;;8.04;81.25
55044;BME280;54902;50.420;18.854;2024-03-02T02:47:43;100614.45;;;8.03;81.25
55044;BME280;54902;50.420;18.854;2024-03-02T02:48:15;100615.41;;;8.02;81.25
55044;BME280;54902;50.420;18.854;2024-03-02T02:48:46;100610.95;;;8.01;81.26
55044;BME280;54902;50.420;18.854;2024-03-02T02:49:17;100616.40;;;8.01;81.25